createdAt,value
2022-07-28T00:01:23.435Z,12.46
2022-07-28T00:03:49.889Z,12.44
2022-07-28T00:06:16.732Z,12.45
2022-07-28T00:08:43.136Z,12.44
2022-07-28T00:11:09.540Z,12.43
2022-07-28T00:13:36.099Z,12.39
2022-07-28T00:16:03.180Z,12.37
2022-07-28T00:18:29.695Z,12.36
2022-07-28T00:20:58.004Z,12.33
2022-07-28T00:23:35.873Z,12.30
2022-07-28T00:26:06.631Z,12.30
2022-07-28T00:28:33.086Z,12.31
2022-07-28T00:31:05.207Z,12.22
2022-07-28T00:33:35.851Z,12.17
2022-07-28T00:36:02.307Z,12.16
2022-07-28T00:38:28.710Z,12.19
2022-07-28T00:41:13.202Z,12.21
2022-07-28T00:43:48.024Z,12.15
2022-07-28T00:46:16.364Z,12.10
2022-07-28T00:48:51.998Z,12.08
2022-07-28T00:51:21.123Z,12.06
2022-07-28T00:53:48.264Z,12.06
2022-07-28T00:56:15.638Z,12.03
2022-07-28T00:58:42.266Z,12.01
2022-07-28T01:01:10.950Z,11.94
2022-07-28T01:03:40.331Z,11.87
2022-07-28T01:06:18.624Z,11.81
2022-07-28T01:08:57.939Z,11.79
2022-07-28T01:11:26.962Z,11.76
2022-07-28T01:13:59.426Z,11.69
2022-07-28T01:16:27.473Z,11.60
2022-07-28T01:19:09.548Z,11.54
2022-07-28T01:21:39.834Z,11.47
2022-07-28T01:24:26.310Z,11.40
2022-07-28T01:27:07.963Z,11.30
2022-07-28T01:30:01.549Z,11.21
2022-07-28T01:32:37.147Z,11.19
2022-07-28T01:35:26.312Z,11.21
2022-07-28T01:37:57.699Z,11.22
2022-07-28T01:40:28.435Z,11.20
2022-07-28T01:42:59.010Z,11.10
2022-07-28T01:45:26.600Z,11.05
2022-07-28T01:47:55.511Z,11.02
2022-07-28T01:50:26.520Z,10.98
2022-07-28T01:52:56.066Z,10.98
2022-07-28T01:55:25.212Z,10.99
2022-07-28T01:57:54.419Z,10.97
2022-07-28T02:00:22.688Z,10.91
2022-07-28T02:02:50.656Z,10.85
2022-07-28T02:05:21.829Z,10.79
2022-07-28T02:07:51.207Z,10.73
2022-07-28T02:10:19.845Z,10.67
2022-07-28T02:12:48.836Z,10.64
2022-07-28T02:15:15.860Z,10.64
2022-07-28T02:17:45.102Z,10.64
2022-07-28T02:20:13.363Z,10.58
2022-07-28T02:22:41.062Z,10.57
2022-07-28T02:25:08.562Z,10.55
2022-07-28T02:27:46.776Z,10.49
2022-07-28T02:30:23.122Z,10.45
2022-07-28T02:32:59.589Z,10.41
2022-07-28T02:35:32.541Z,10.38
2022-07-28T02:38:04.749Z,10.37
2022-07-28T02:40:36.016Z,10.33
2022-07-28T02:43:06.811Z,10.29
2022-07-28T02:45:35.709Z,10.25
2022-07-28T02:48:05.749Z,10.23
2022-07-28T02:50:32.277Z,10.20
2022-07-28T02:53:14.961Z,10.22
2022-07-28T02:55:46.190Z,10.32
2022-07-28T02:58:14.116Z,10.38
2022-07-28T03:00:41.448Z,10.42
2022-07-28T03:03:09.473Z,10.50
2022-07-28T03:05:36.614Z,10.59
2022-07-28T03:08:03.239Z,10.65
2022-07-28T03:10:33.622Z,10.70
2022-07-28T03:13:02.092Z,10.74
2022-07-28T03:15:28.803Z,10.78
2022-07-28T03:17:55.302Z,10.75
2022-07-28T03:20:21.716Z,10.68
2022-07-28T03:22:48.186Z,10.66
2022-07-28T03:25:24.072Z,10.55
2022-07-28T03:27:52.783Z,10.49
2022-07-28T03:30:22.823Z,10.45
2022-07-28T03:32:59.484Z,10.40
2022-07-28T03:35:26.505Z,10.40
2022-07-28T03:37:57.746Z,10.38
2022-07-28T03:40:26.848Z,10.36
2022-07-28T03:42:55.219Z,10.37
2022-07-28T03:45:21.814Z,10.37
2022-07-28T03:47:53.471Z,10.36
2022-07-28T03:50:29.016Z,10.38
2022-07-28T03:52:56.824Z,10.34
2022-07-28T03:55:23.973Z,10.31
2022-07-28T03:57:50.514Z,10.30
2022-07-28T04:00:18.002Z,10.27
2022-07-28T04:02:45.714Z,10.27
2022-07-28T04:05:17.647Z,10.23
2022-07-28T04:07:46.002Z,10.20
2022-07-28T04:10:15.368Z,10.18
2022-07-28T04:13:00.753Z,10.17
2022-07-28T04:15:28.165Z,10.17
2022-07-28T04:17:55.645Z,10.21
2022-07-28T04:20:23.317Z,10.29
2022-07-28T04:22:51.018Z,10.37
2022-07-28T04:25:20.418Z,10.43
2022-07-28T04:27:47.126Z,10.51
2022-07-28T04:30:18.969Z,10.57
2022-07-28T04:32:47.038Z,10.67
2022-07-28T04:35:17.475Z,10.86
2022-07-28T04:37:45.563Z,10.99
2022-07-28T04:40:13.262Z,11.12
2022-07-28T04:42:40.475Z,11.22
2022-07-28T04:45:08.763Z,11.30
2022-07-28T04:47:35.196Z,11.34
2022-07-28T04:50:01.941Z,11.39
2022-07-28T04:52:28.420Z,11.46
2022-07-28T04:54:54.917Z,11.51
2022-07-28T04:57:21.414Z,11.54
2022-07-28T04:59:50.637Z,11.47
2022-07-28T05:02:17.037Z,11.43
2022-07-28T05:04:44.169Z,11.43
2022-07-28T05:07:12.698Z,11.52
2022-07-28T05:09:39.584Z,11.59
2022-07-28T05:12:06.581Z,11.65
2022-07-28T05:14:33.244Z,11.70
2022-07-28T05:16:59.666Z,11.76
2022-07-28T05:19:26.143Z,11.82
2022-07-28T05:21:52.519Z,11.86
2022-07-28T05:24:18.989Z,11.95
2022-07-28T05:26:45.555Z,12.02
2022-07-28T05:29:12.068Z,12.11
2022-07-28T05:31:38.506Z,12.16
2022-07-28T05:34:06.015Z,12.22
2022-07-28T05:36:32.401Z,12.29
2022-07-28T05:38:58.843Z,12.36
2022-07-28T05:41:25.226Z,12.39
2022-07-28T05:43:51.595Z,12.42
2022-07-28T05:46:18.127Z,12.43
2022-07-28T05:48:45.998Z,12.54
2022-07-28T05:51:12.472Z,12.67
2022-07-28T05:53:38.972Z,12.87
2022-07-28T05:56:06.472Z,13.05
2022-07-28T05:58:33.122Z,13.18
2022-07-28T06:01:01.107Z,13.39
2022-07-28T06:03:30.492Z,13.66
2022-07-28T06:05:59.207Z,13.96
2022-07-28T06:08:41.823Z,14.24
2022-07-28T06:11:11.774Z,14.48
2022-07-28T06:13:39.957Z,14.78
2022-07-28T06:16:12.676Z,15.03
2022-07-28T06:18:40.014Z,15.24
2022-07-28T06:21:06.538Z,15.46
2022-07-28T06:23:33.033Z,15.72
2022-07-28T06:25:59.512Z,15.94
2022-07-28T06:28:25.952Z,16.04
2022-07-28T06:30:52.391Z,16.23
2022-07-28T06:33:18.826Z,16.24
2022-07-28T06:35:48.295Z,16.13
2022-07-28T06:38:16.449Z,16.06
2022-07-28T06:40:43.240Z,16.06
2022-07-28T06:43:09.683Z,16.06
2022-07-28T06:45:36.073Z,16.13
2022-07-28T06:48:02.458Z,16.31
2022-07-28T06:50:28.921Z,16.46
2022-07-28T06:52:57.165Z,16.53
2022-07-28T06:55:26.250Z,16.77
2022-07-28T06:58:01.457Z,16.71
2022-07-28T07:00:28.004Z,16.66
2022-07-28T07:02:54.481Z,17.01
2022-07-28T07:05:20.873Z,16.90
2022-07-28T07:07:47.294Z,17.15
2022-07-28T07:10:13.856Z,17.15
2022-07-28T07:12:40.243Z,17.12
2022-07-28T07:15:08.008Z,17.03
2022-07-28T07:17:34.496Z,17.06
2022-07-28T07:20:00.871Z,17.20
2022-07-28T07:22:27.374Z,17.48
2022-07-28T07:24:57.145Z,17.66
2022-07-28T07:27:24.543Z,18.01
2022-07-28T07:29:50.989Z,18.37
2022-07-28T07:32:17.374Z,18.55
2022-07-28T07:34:43.733Z,19.14
2022-07-28T07:37:13.585Z,19.07
2022-07-28T07:39:40.492Z,19.37
2022-07-28T07:42:06.983Z,19.71
2022-07-28T07:44:33.348Z,20.40
2022-07-28T07:46:59.873Z,20.29
2022-07-28T07:49:26.426Z,20.57
2022-07-28T07:52:12.263Z,21.34
2022-07-28T07:54:38.818Z,21.37
2022-07-28T07:57:05.278Z,22.40
2022-07-28T07:59:31.763Z,23.17
2022-07-28T08:01:58.311Z,22.09
2022-07-28T08:04:25.263Z,20.82
2022-07-28T08:06:53.072Z,20.45
2022-07-28T08:09:19.975Z,20.98
2022-07-28T08:11:46.374Z,21.18
2022-07-28T08:14:13.088Z,21.47
2022-07-28T08:16:39.781Z,21.24
2022-07-28T08:19:06.391Z,21.68
2022-07-28T08:21:35.318Z,22.60
2022-07-28T08:24:01.744Z,22.98
2022-07-28T08:26:29.599Z,23.33
2022-07-28T08:28:56.056Z,23.84
2022-07-28T08:31:22.495Z,23.64
2022-07-28T08:33:53.244Z,23.68
2022-07-28T08:36:21.136Z,23.79
2022-07-28T08:38:47.528Z,23.63
2022-07-28T08:41:33.504Z,24.01
2022-07-28T08:44:04.010Z,24.54
2022-07-28T08:46:36.147Z,23.96
2022-07-28T08:49:07.603Z,23.25
2022-07-28T08:51:35.096Z,22.88
2022-07-28T08:54:03.518Z,23.23
2022-07-28T08:56:31.497Z,24.10
2022-07-28T08:58:58.335Z,23.35
2022-07-28T09:01:24.788Z,22.67
2022-07-28T09:04:07.907Z,22.95
2022-07-28T09:06:34.683Z,23.30
2022-07-28T09:09:01.048Z,23.39
2022-07-28T09:11:28.460Z,24.35
2022-07-28T09:13:54.966Z,24.38
2022-07-28T09:16:21.496Z,24.42
2022-07-28T09:18:47.923Z,24.25
2022-07-28T09:21:15.401Z,23.96
2022-07-28T09:23:44.529Z,23.23
2022-07-28T09:26:12.809Z,23.16
2022-07-28T09:28:58.938Z,22.68
2022-07-28T09:31:26.996Z,23.57
2022-07-28T09:34:04.271Z,24.76
2022-07-28T09:36:41.437Z,25.55
2022-07-28T09:39:08.347Z,25.38
2022-07-28T09:41:55.220Z,24.81
2022-07-28T09:44:23.945Z,24.42
2022-07-28T09:46:51.069Z,24.54
2022-07-28T09:49:17.851Z,25.08
2022-07-28T09:52:00.234Z,24.77
2022-07-28T09:54:27.075Z,25.33
2022-07-28T09:56:53.810Z,25.61
2022-07-28T09:59:23.155Z,25.38
2022-07-28T10:02:01.690Z,25.02
2022-07-28T10:04:41.062Z,24.63
2022-07-28T10:07:17.108Z,24.27
2022-07-28T10:09:44.527Z,24.35
2022-07-28T10:12:18.390Z,24.82
2022-07-28T10:14:46.327Z,25.43
2022-07-28T10:17:23.134Z,26.28
2022-07-28T10:19:49.593Z,26.73
2022-07-28T10:22:17.875Z,26.74
2022-07-28T10:24:46.766Z,26.86
2022-07-28T10:27:13.984Z,27.66
2022-07-28T10:29:44.243Z,27.73
2022-07-28T10:32:10.595Z,27.53
2022-07-28T10:34:50.402Z,27.13
2022-07-28T10:37:27.939Z,26.71
2022-07-28T10:40:10.567Z,27.12
2022-07-28T10:42:39.444Z,26.64
2022-07-28T10:45:09.074Z,26.78
2022-07-28T10:47:35.759Z,27.36
2022-07-28T10:50:04.919Z,27.56
2022-07-28T10:52:50.514Z,27.44
2022-07-28T10:55:41.891Z,27.96
2022-07-28T10:58:24.999Z,28.35
2022-07-28T11:00:58.191Z,27.62
2022-07-28T11:03:47.043Z,27.48
2022-07-28T11:06:25.976Z,28.52
2022-07-28T11:08:53.583Z,29.55
2022-07-28T11:11:52.268Z,29.75
2022-07-28T11:14:22.669Z,28.97
2022-07-28T11:17:11.673Z,28.14
2022-07-28T11:20:07.058Z,28.29
2022-07-28T11:22:33.431Z,28.48
2022-07-28T11:25:17.935Z,28.97
2022-07-28T11:27:51.187Z,28.77
2022-07-28T11:30:35.616Z,28.38
2022-07-28T11:33:03.881Z,28.57
2022-07-28T11:35:54.708Z,29.71
2022-07-28T11:38:22.207Z,29.28
2022-07-28T11:40:53.259Z,29.86
2022-07-28T11:43:35.488Z,29.92
2022-07-28T11:46:10.300Z,30.76
2022-07-28T11:48:40.029Z,30.24
2022-07-28T11:51:06.711Z,30.19
2022-07-28T11:53:46.746Z,29.75
2022-07-28T11:56:15.248Z,29.55
2022-07-28T11:58:43.363Z,29.57
2022-07-28T12:01:19.603Z,29.38
2022-07-28T12:03:55.107Z,29.79
2022-07-28T12:06:35.892Z,29.31
2022-07-28T12:09:05.408Z,29.76
2022-07-28T12:11:37.144Z,30.39
2022-07-28T12:14:15.433Z,28.48
2022-07-28T12:16:44.668Z,26.17
2022-07-28T12:19:16.531Z,27.26
2022-07-28T12:21:47.801Z,29.17
2022-07-28T12:24:45.753Z,31.28
2022-07-28T12:27:13.630Z,30.54
2022-07-28T12:29:42.189Z,29.31
2022-07-28T12:32:09.974Z,28.61
2022-07-28T12:34:44.371Z,28.24
2022-07-28T12:37:13.720Z,27.61
2022-07-28T12:39:42.703Z,26.21
2022-07-28T12:42:11.437Z,26.37
2022-07-28T12:44:40.134Z,26.36
2022-07-28T12:47:09.202Z,26.73
2022-07-28T12:49:37.019Z,26.39
2022-07-28T12:52:17.430Z,26.33
2022-07-28T12:54:53.496Z,25.72
2022-07-28T12:57:50.844Z,25.66
2022-07-28T13:00:21.022Z,25.33
2022-07-28T13:02:49.181Z,25.40
2022-07-28T13:05:28.282Z,25.20
2022-07-28T13:08:05.877Z,24.54
2022-07-28T13:10:32.551Z,24.44
2022-07-28T13:13:01.335Z,23.85
2022-07-28T13:15:27.947Z,23.75
2022-07-28T13:17:56.147Z,23.78
2022-07-28T13:20:24.304Z,23.71
2022-07-28T13:22:51.127Z,23.76
2022-07-28T13:25:17.531Z,23.68
2022-07-28T13:27:44.476Z,23.59
2022-07-28T13:30:11.476Z,23.63
2022-07-28T13:32:38.384Z,23.44
2022-07-28T13:35:05.807Z,23.30
2022-07-28T13:37:41.381Z,23.29
2022-07-28T13:40:08.236Z,23.29
2022-07-28T13:42:34.684Z,23.21
2022-07-28T13:45:01.730Z,23.27
2022-07-28T13:47:35.494Z,23.10
2022-07-28T13:50:07.201Z,22.95
2022-07-28T13:52:37.503Z,22.88
2022-07-28T13:55:06.047Z,22.90
2022-07-28T13:57:33.760Z,22.78
2022-07-28T14:00:07.520Z,22.56
2022-07-28T14:02:34.510Z,22.56
2022-07-28T14:05:03.299Z,22.68
2022-07-28T14:07:29.764Z,22.77
2022-07-28T14:09:56.176Z,22.63
2022-07-28T14:12:22.555Z,22.74
2022-07-28T14:14:51.420Z,22.99
2022-07-28T14:20:10.008Z,22.79
2022-07-28T14:22:36.512Z,22.74
2022-07-28T14:25:03.280Z,22.68
2022-07-28T14:27:29.776Z,22.51
2022-07-28T14:29:56.212Z,22.45
2022-07-28T14:32:23.154Z,22.24
2022-07-28T14:34:50.374Z,22.14
2022-07-28T14:37:17.186Z,22.05
2022-07-28T14:39:43.825Z,22.01
2022-07-28T14:42:10.476Z,22.27
2022-07-28T14:44:37.363Z,22.35
2022-07-28T14:47:04.115Z,22.59
2022-07-28T14:49:30.655Z,22.67
2022-07-28T14:51:57.833Z,22.68
2022-07-28T14:54:24.240Z,22.65
2022-07-28T14:56:50.787Z,22.45
2022-07-28T14:59:17.492Z,22.51
2022-07-28T15:01:43.985Z,22.50
2022-07-28T15:04:13.885Z,22.42
2022-07-28T15:06:40.705Z,22.48
2022-07-28T15:09:07.130Z,22.56
2022-07-28T15:11:33.472Z,22.47
2022-07-28T15:13:59.873Z,22.47
2022-07-28T15:16:26.350Z,22.44
2022-07-28T15:18:53.228Z,22.19
2022-07-28T15:21:19.758Z,22.08
2022-07-28T15:23:46.131Z,21.94
2022-07-28T15:26:12.678Z,21.87
2022-07-28T15:28:39.419Z,21.78
2022-07-28T15:31:08.659Z,21.53
2022-07-28T15:33:45.473Z,21.50
2022-07-28T15:36:14.378Z,21.47
2022-07-28T15:38:40.754Z,21.45
2022-07-28T15:41:07.494Z,21.40
2022-07-28T15:43:33.974Z,21.37
2022-07-28T15:46:04.843Z,21.39
2022-07-28T15:48:31.679Z,21.34
2022-07-28T15:50:58.290Z,21.42
2022-07-28T15:53:25.116Z,21.45
2022-07-28T15:55:52.031Z,21.37
2022-07-28T15:58:19.082Z,21.48
2022-07-28T16:00:45.916Z,21.49
2022-07-28T16:03:12.507Z,21.36
2022-07-28T16:05:39.014Z,21.32
2022-07-28T16:08:05.684Z,21.25
2022-07-28T16:10:32.212Z,21.27
2022-07-28T16:12:58.592Z,21.23
2022-07-28T16:15:26.856Z,21.17
2022-07-28T16:17:54.338Z,21.11
2022-07-28T16:20:20.862Z,21.20
2022-07-28T16:22:47.464Z,21.08
2022-07-28T16:25:19.663Z,21.07
2022-07-28T16:27:47.672Z,20.99
2022-07-28T16:30:14.653Z,20.99
2022-07-28T16:32:41.135Z,20.97
2022-07-28T16:35:08.189Z,20.93
2022-07-28T16:37:35.568Z,20.95
2022-07-28T16:40:03.561Z,20.95
2022-07-28T16:42:30.084Z,20.96
2022-07-28T16:44:56.465Z,20.96
2022-07-28T16:47:22.913Z,20.95
2022-07-28T16:49:49.314Z,20.83
2022-07-28T16:52:15.778Z,20.76
2022-07-28T16:54:42.837Z,20.74
2022-07-28T16:57:09.303Z,20.77
2022-07-28T16:59:37.701Z,20.79
2022-07-28T17:02:14.420Z,20.82
2022-07-28T17:04:40.822Z,20.78
2022-07-28T17:07:08.215Z,20.75
2022-07-28T17:09:34.831Z,20.71
2022-07-28T17:12:01.392Z,20.67
2022-07-28T17:14:27.745Z,20.69
2022-07-28T17:16:54.262Z,20.72
2022-07-28T17:19:22.759Z,20.63
2022-07-28T17:21:49.176Z,20.55
2022-07-28T17:24:16.135Z,20.49
2022-07-28T17:27:35.260Z,20.45
2022-07-28T17:29:29.426Z,20.37
2022-07-28T17:31:55.828Z,20.34
2022-07-28T17:34:22.286Z,20.30
2022-07-28T17:36:50.281Z,20.32
2022-07-28T17:39:16.670Z,20.32
2022-07-28T17:41:43.051Z,20.24
2022-07-28T17:44:12.384Z,20.16
2022-07-28T17:46:38.957Z,20.14
2022-07-28T17:49:07.825Z,20.13
2022-07-28T17:51:34.787Z,20.00
2022-07-28T17:54:01.258Z,19.94
2022-07-28T17:56:31.125Z,19.91
2022-07-28T17:59:00.792Z,19.83
2022-07-28T18:01:27.285Z,19.73
2022-07-28T18:03:56.533Z,19.68
2022-07-28T18:06:28.244Z,19.62
2022-07-28T18:08:54.665Z,19.62
2022-07-28T18:11:21.006Z,19.56
2022-07-28T18:14:03.853Z,19.50
2022-07-28T18:16:33.943Z,19.40
2022-07-28T18:19:00.445Z,19.36
2022-07-28T18:21:26.875Z,19.31
2022-07-28T18:23:54.979Z,19.25
2022-07-28T18:26:21.977Z,19.25
2022-07-28T18:28:48.637Z,19.19
2022-07-28T18:31:15.138Z,19.11
2022-07-28T18:33:41.546Z,19.06
2022-07-28T18:36:08.141Z,18.98
2022-07-28T18:38:34.527Z,18.92
2022-07-28T18:41:01.110Z,18.87
2022-07-28T18:43:27.668Z,18.87
2022-07-28T18:45:54.136Z,18.81
2022-07-28T18:48:20.715Z,18.76
2022-07-28T18:50:50.125Z,18.67
2022-07-28T18:53:16.787Z,18.62
2022-07-28T18:55:45.503Z,18.56
2022-07-28T18:58:11.944Z,18.50
2022-07-28T19:00:38.376Z,18.43
2022-07-28T19:03:04.781Z,18.35
2022-07-28T19:05:36.433Z,18.29
2022-07-28T19:08:06.254Z,18.19
2022-07-28T19:10:32.676Z,18.11
2022-07-28T19:12:59.168Z,18.09
2022-07-28T19:15:25.583Z,18.04
2022-07-28T19:18:11.399Z,18.00
2022-07-28T19:20:40.496Z,17.95
2022-07-28T19:23:06.914Z,17.89
2022-07-28T19:25:35.685Z,17.83
2022-07-28T19:28:02.219Z,17.78
2022-07-28T19:30:30.203Z,17.73
2022-07-28T19:32:56.598Z,17.71
2022-07-28T19:35:23.152Z,17.67
2022-07-28T19:37:50.681Z,17.66
2022-07-28T19:40:17.065Z,17.66
2022-07-28T19:42:43.563Z,17.63
2022-07-28T19:45:12.511Z,17.61
2022-07-28T19:47:38.962Z,17.55
2022-07-28T19:50:05.884Z,17.51
2022-07-28T19:52:35.566Z,17.50
2022-07-28T19:55:05.109Z,17.52
2022-07-28T19:57:32.203Z,17.50
2022-07-28T19:59:59.072Z,17.50
2022-07-28T20:02:25.480Z,17.51
2022-07-28T20:04:51.900Z,17.50
2022-07-28T20:07:18.584Z,17.50
2022-07-28T20:09:44.989Z,17.47
2022-07-28T20:12:11.388Z,17.44
2022-07-28T20:14:37.844Z,17.37
2022-07-28T20:17:04.301Z,17.26
2022-07-28T20:19:30.799Z,17.19
2022-07-28T20:21:57.266Z,17.11
2022-07-28T20:24:23.978Z,17.08
2022-07-28T20:26:52.782Z,17.06
2022-07-28T20:29:19.199Z,17.06
2022-07-28T20:31:45.630Z,17.06
2022-07-28T20:34:13.003Z,17.05
2022-07-28T20:36:39.684Z,17.04
2022-07-28T20:39:27.592Z,17.01
2022-07-28T20:41:52.460Z,16.95
2022-07-28T20:44:28.782Z,16.90
2022-07-28T20:46:58.501Z,16.86
2022-07-28T20:49:24.987Z,16.82
2022-07-28T20:51:51.529Z,16.82
2022-07-28T20:54:18.697Z,16.78
2022-07-28T20:56:45.259Z,16.77
2022-07-28T20:59:11.635Z,16.77
2022-07-28T21:01:38.164Z,16.71
2022-07-28T21:04:04.815Z,16.67
2022-07-28T21:06:31.958Z,16.62
2022-07-28T21:09:00.564Z,16.59
2022-07-28T21:11:27.189Z,16.57
2022-07-28T21:13:54.018Z,16.55
2022-07-28T21:16:20.434Z,16.51
2022-07-28T21:18:46.937Z,16.49
2022-07-28T21:21:13.507Z,16.46
2022-07-28T21:23:44.489Z,16.41
2022-07-28T21:26:12.397Z,16.36
2022-07-28T21:28:57.588Z,16.31
2022-07-28T21:31:24.756Z,16.26
2022-07-28T21:33:52.211Z,16.22
2022-07-28T21:36:18.836Z,16.16
2022-07-28T21:38:45.894Z,16.13
2022-07-28T21:41:12.359Z,16.11
2022-07-28T21:43:38.703Z,16.08
2022-07-28T21:46:05.157Z,16.09
2022-07-28T21:48:31.952Z,16.06
2022-07-28T21:50:58.798Z,16.07
2022-07-28T21:53:25.308Z,16.04
2022-07-28T21:55:54.307Z,16.01
2022-07-28T21:58:21.021Z,15.95
2022-07-28T22:00:47.479Z,15.89
2022-07-28T22:03:13.924Z,15.85
2022-07-28T22:05:40.856Z,15.82
2022-07-28T22:08:09.278Z,15.76
2022-07-28T22:10:35.627Z,15.72
2022-07-28T22:13:01.989Z,15.71
2022-07-28T22:15:28.516Z,15.69
2022-07-28T22:17:55.009Z,15.66
2022-07-28T22:20:21.389Z,15.62
2022-07-28T22:22:47.750Z,15.60
2022-07-28T22:25:14.150Z,15.55
2022-07-28T22:27:40.571Z,15.53
2022-07-28T22:30:07.597Z,15.50
2022-07-28T22:32:34.071Z,15.47
2022-07-28T22:35:00.425Z,15.42
2022-07-28T22:37:26.821Z,15.41
2022-07-28T22:39:53.263Z,15.38
2022-07-28T22:42:19.675Z,15.36
2022-07-28T22:44:46.133Z,15.33
2022-07-28T22:47:12.501Z,15.28
2022-07-28T22:49:38.888Z,15.21
2022-07-28T22:52:05.487Z,15.21
2022-07-28T22:54:31.993Z,15.18
2022-07-28T22:56:58.495Z,15.15
2022-07-28T22:59:24.925Z,15.16
2022-07-28T23:01:51.609Z,15.17
2022-07-28T23:04:18.366Z,15.15
2022-07-28T23:06:45.048Z,15.17
2022-07-28T23:09:12.421Z,15.17
2022-07-28T23:11:39.149Z,15.20
2022-07-28T23:14:05.732Z,15.20
2022-07-28T23:16:32.307Z,15.19
2022-07-28T23:18:58.919Z,15.20
2022-07-28T23:21:25.403Z,15.18
2022-07-28T23:23:51.873Z,15.18
2022-07-28T23:26:18.337Z,15.18
2022-07-28T23:28:44.853Z,15.17
2022-07-28T23:31:11.329Z,15.16
2022-07-28T23:33:56.764Z,15.14
2022-07-28T23:36:27.538Z,15.11
2022-07-28T23:38:58.801Z,15.10
2022-07-28T23:41:26.294Z,15.08
2022-07-28T23:43:53.010Z,15.07
2022-07-28T23:46:19.501Z,15.07
2022-07-28T23:48:46.045Z,15.04
2022-07-28T23:51:13.948Z,15.03
2022-07-28T23:53:43.885Z,15.02
2022-07-28T23:56:10.405Z,15.01
2022-07-28T23:58:36.817Z,14.98
